sensor_id;sensor_type;location;lat;lon;timestamp;pressure;altitude;pressure_sealevel;temperature;humidity
42859;BME280;28505;56.970;40.998;2022-10-31T00:00:15;97751.44;;;0.85;nan
42859;BME280;28505;56.970;40.998;2022-10-31T00:05:46;97744.97;;;0.91;nan
42859;BME280;28505;56.970;40.998;2022-10-31T00:11:09;97727.59;;;0.80;nan
42859;BME280;28505;56.970;40.998;2022-10-31T00:16:31;97748.69;;;0.90;nan
42859;BME280;28505;56.970;40.998;2022-10-31T00:22:02;97742.16;;;0.83;nan
42859;BME280;28505;56.970;40.998;2022-10-31T00:27:25;97757.44;;;0.91;nan
42859;BME280;28505;56.970;40.998;2022-10-31T00:32:48;97762.91;;;1.00;nan
42859;BME280;28505;56.970;40.998;2022-10-31T00:38:11;97736.06;;;0.82;nan
42859;BME280;28505;56.970;40.998;2022-10-31T00:43:34;97757.28;;;0.82;nan
42859;BME280;28505;56.970;40.998;2022-10-31T00:48:59;97751.78;;;0.79;nan
42859;BME280;28505;56.970;40.998;2022-10-31T00:54:25;97734.09;;;0.69;nan
42859;BME280;28505;56.970;40.998;2022-10-31T00:59:49;97751.47;;;0.80;nan
42859;BME280;28505;56.970;40.998;2022-10-31T01:05:13;97736.47;;;0.70;nan
42859;BME280;28505;56.970;40.998;2022-10-31T01:10:36;97758.97;;;0.73;nan
42859;BME280;28505;56.970;40.998;2022-10-31T01:16:05;97776.97;;;0.76;nan
42859;BME280;28505;56.970;40.998;2022-10-31T01:21:31;97762.13;;;0.75;nan
42859;BME280;28505;56.970;40.998;2022-10-31T01:26:56;97762.09;;;0.80;nan
42859;BME280;28505;56.970;40.998;2022-10-31T01:32:18;97772.16;;;0.78;nan
42859;BME280;28505;56.970;40.998;2022-10-31T01:37:44;97773.44;;;0.86;nan
42859;BME280;28505;56.970;40.998;2022-10-31T01:43:13;97770.03;;;0.80;nan
42859;BME280;28505;56.970;40.998;2022-10-31T01:48:36;97784.38;;;0.79;nan
42859;BME280;28505;56.970;40.998;2022-10-31T01:54:03;97785.91;;;0.85;nan
42859;BME280;28505;56.970;40.998;2022-10-31T03:09:19;97889.19;;;0.72;nan
42859;BME280;28505;56.970;40.998;2022-10-31T03:40:17;97900.44;;;0.58;nan
42859;BME280;28505;56.970;40.998;2022-10-31T03:46:25;97908.94;;;0.60;nan
42859;BME280;28505;56.970;40.998;2022-10-31T03:52:30;97949.59;;;0.80;nan
42859;BME280;28505;56.970;40.998;2022-10-31T03:57:59;97954.69;;;0.76;nan
42859;BME280;28505;56.970;40.998;2022-10-31T04:03:33;97967.16;;;0.76;nan
42859;BME280;28505;56.970;40.998;2022-10-31T04:09:02;97979.03;;;0.78;nan
42859;BME280;28505;56.970;40.998;2022-10-31T04:14:26;97979.59;;;0.75;nan
42859;BME280;28505;56.970;40.998;2022-10-31T04:19:52;97990.22;;;0.75;nan
42859;BME280;28505;56.970;40.998;2022-10-31T04:25:15;98002.88;;;0.83;nan
42859;BME280;28505;56.970;40.998;2022-10-31T04:30:37;98007.66;;;0.86;nan
42859;BME280;28505;56.970;40.998;2022-10-31T04:36:00;98010.25;;;0.91;nan
42859;BME280;28505;56.970;40.998;2022-10-31T04:41:22;98021.94;;;0.90;nan
42859;BME280;28505;56.970;40.998;2022-10-31T04:47:05;98037.34;;;0.88;nan
42859;BME280;28505;56.970;40.998;2022-10-31T04:52:27;98064.38;;;0.90;nan
42859;BME280;28505;56.970;40.998;2022-10-31T04:57:50;98054.06;;;0.89;nan
42859;BME280;28505;56.970;40.998;2022-10-31T05:03:13;98061.16;;;0.93;nan
42859;BME280;28505;56.970;40.998;2022-10-31T05:08:36;98061.72;;;0.90;nan
42859;BME280;28505;56.970;40.998;2022-10-31T05:14:01;98069.97;;;0.89;nan
42859;BME280;28505;56.970;40.998;2022-10-31T05:19:46;98091.16;;;0.94;nan
42859;BME280;28505;56.970;40.998;2022-10-31T05:25:34;98126.41;;;0.94;nan
42859;BME280;28505;56.970;40.998;2022-10-31T05:30:57;98122.50;;;0.87;nan
42859;BME280;28505;56.970;40.998;2022-10-31T05:36:19;98125.31;;;1.01;nan
42859;BME280;28505;56.970;40.998;2022-10-31T05:41:45;98120.53;;;1.03;nan
42859;BME280;28505;56.970;40.998;2022-10-31T05:47:12;98161.94;;;1.04;nan
42859;BME280;28505;56.970;40.998;2022-10-31T05:52:57;98166.94;;;1.10;nan
42859;BME280;28505;56.970;40.998;2022-10-31T05:58:27;98165.09;;;1.06;nan
42859;BME280;28505;56.970;40.998;2022-10-31T06:03:58;98181.09;;;0.96;nan
42859;BME280;28505;56.970;40.998;2022-10-31T06:09:21;98200.94;;;1.08;nan
42859;BME280;28505;56.970;40.998;2022-10-31T06:14:43;98215.00;;;1.04;nan
42859;BME280;28505;56.970;40.998;2022-10-31T06:20:07;98222.13;;;1.13;nan
42859;BME280;28505;56.970;40.998;2022-10-31T06:25:41;98233.00;;;1.12;nan
42859;BME280;28505;56.970;40.998;2022-10-31T06:31:05;98226.63;;;1.13;nan
42859;BME280;28505;56.970;40.998;2022-10-31T06:36:28;98229.81;;;1.10;nan
42859;BME280;28505;56.970;40.998;2022-10-31T06:41:50;98238.22;;;1.27;nan
42859;BME280;28505;56.970;40.998;2022-10-31T06:47:16;98245.63;;;1.35;nan
42859;BME280;28505;56.970;40.998;2022-10-31T06:52:57;98247.31;;;1.21;nan
42859;BME280;28505;56.970;40.998;2022-10-31T06:58:23;98247.25;;;1.26;nan
42859;BME280;28505;56.970;40.998;2022-10-31T07:03:53;98254.00;;;1.03;nan
42859;BME280;28505;56.970;40.998;2022-10-31T07:09:19;98246.53;;;1.10;nan
42859;BME280;28505;56.970;40.998;2022-10-31T07:14:48;98267.47;;;1.17;nan
42859;BME280;28505;56.970;40.998;2022-10-31T07:20:16;98250.16;;;1.35;nan
42859;BME280;28505;56.970;40.998;2022-10-31T07:25:39;98255.31;;;1.60;nan
42859;BME280;28505;56.970;40.998;2022-10-31T07:31:10;98262.50;;;1.55;nan
42859;BME280;28505;56.970;40.998;2022-10-31T07:36:33;98266.16;;;1.64;nan
42859;BME280;28505;56.970;40.998;2022-10-31T07:41:58;98256.34;;;1.59;nan
42859;BME280;28505;56.970;40.998;2022-10-31T07:47:25;98253.66;;;1.64;nan
42859;BME280;28505;56.970;40.998;2022-10-31T07:53:23;98270.94;;;1.62;nan
42859;BME280;28505;56.970;40.998;2022-10-31T07:59:23;98261.56;;;1.30;nan
42859;BME280;28505;56.970;40.998;2022-10-31T08:04:48;98297.34;;;1.43;nan
42859;BME280;28505;56.970;40.998;2022-10-31T08:10:23;98300.88;;;1.28;nan
42859;BME280;28505;56.970;40.998;2022-10-31T08:15:47;98326.94;;;1.21;nan
42859;BME280;28505;56.970;40.998;2022-10-31T08:21:16;98344.94;;;1.29;nan
42859;BME280;28505;56.970;40.998;2022-10-31T08:26:39;98361.44;;;1.16;nan
42859;BME280;28505;56.970;40.998;2022-10-31T08:32:04;98350.81;;;1.21;nan
42859;BME280;28505;56.970;40.998;2022-10-31T08:37:44;98367.56;;;1.11;nan
42859;BME280;28505;56.970;40.998;2022-10-31T08:43:14;98406.06;;;1.09;nan
42859;BME280;28505;56.970;40.998;2022-10-31T08:48:36;98410.56;;;1.13;nan
42859;BME280;28505;56.970;40.998;2022-10-31T08:53:58;98397.81;;;1.15;nan
42859;BME280;28505;56.970;40.998;2022-10-31T08:59:20;98404.94;;;1.30;nan
42859;BME280;28505;56.970;40.998;2022-10-31T09:05:08;98394.59;;;1.24;nan
42859;BME280;28505;56.970;40.998;2022-10-31T09:10:36;98394.59;;;1.24;nan
42859;BME280;28505;56.970;40.998;2022-10-31T09:16:03;98391.72;;;1.15;nan
42859;BME280;28505;56.970;40.998;2022-10-31T09:21:35;98397.00;;;1.25;nan
42859;BME280;28505;56.970;40.998;2022-10-31T09:27:01;98411.31;;;1.34;nan
42859;BME280;28505;56.970;40.998;2022-10-31T09:32:40;98409.19;;;1.26;nan
42859;BME280;28505;56.970;40.998;2022-10-31T09:38:12;98404.97;;;1.20;nan
42859;BME280;28505;56.970;40.998;2022-10-31T09:57:40;98393.28;;;1.21;nan
42859;BME280;28505;56.970;40.998;2022-10-31T10:04:10;98387.97;;;1.26;nan
42859;BME280;28505;56.970;40.998;2022-10-31T10:18:05;98393.81;;;1.23;nan
42859;BME280;28505;56.970;40.998;2022-10-31T10:23:40;98409.19;;;1.31;nan
42859;BME280;28505;56.970;40.998;2022-10-31T10:37:02;98395.94;;;1.21;nan
42859;BME280;28505;56.970;40.998;2022-10-31T10:43:48;98394.88;;;1.17;nan
42859;BME280;28505;56.970;40.998;2022-10-31T10:59:20;98401.22;;;1.31;nan
42859;BME280;28505;56.970;40.998;2022-10-31T11:05:01;98400.69;;;1.34;nan
42859;BME280;28505;56.970;40.998;2022-10-31T11:32:27;98412.59;;;1.47;nan
42859;BME280;28505;56.970;40.998;2022-10-31T12:25:28;98460.13;;;1.38;nan
42859;BME280;28505;56.970;40.998;2022-10-31T12:43:00;98474.53;;;1.12;nan
42859;BME280;28505;56.970;40.998;2022-10-31T12:49:02;98489.88;;;1.30;nan
42859;BME280;28505;56.970;40.998;2022-10-31T13:00:14;98505.56;;;1.27;nan
42859;BME280;28505;56.970;40.998;2022-10-31T13:05:44;98501.06;;;1.07;nan
42859;BME280;28505;56.970;40.998;2022-10-31T13:11:18;98501.59;;;1.09;nan
42859;BME280;28505;56.970;40.998;2022-10-31T13:16:47;98519.13;;;1.15;nan
42859;BME280;28505;56.970;40.998;2022-10-31T13:22:24;98511.16;;;1.00;nan
42859;BME280;28505;56.970;40.998;2022-10-31T13:28:46;98535.56;;;1.12;nan
42859;BME280;28505;56.970;40.998;2022-10-31T13:34:39;98537.16;;;1.03;nan
42859;BME280;28505;56.970;40.998;2022-10-31T14:00:24;98614.41;;;1.22;nan
42859;BME280;28505;56.970;40.998;2022-10-31T14:06:02;98594.75;;;1.12;nan
42859;BME280;28505;56.970;40.998;2022-10-31T14:12:27;98594.50;;;1.19;nan
42859;BME280;28505;56.970;40.998;2022-10-31T14:18:36;98622.13;;;1.28;nan
42859;BME280;28505;56.970;40.998;2022-10-31T14:30:21;98637.75;;;1.30;nan
42859;BME280;28505;56.970;40.998;2022-10-31T14:36:06;98665.38;;;1.34;nan
42859;BME280;28505;56.970;40.998;2022-10-31T14:47:56;98682.66;;;1.42;nan
42859;BME280;28505;56.970;40.998;2022-10-31T14:53:39;98658.72;;;1.16;nan
42859;BME280;28505;56.970;40.998;2022-10-31T15:33:00;98748.53;;;1.50;nan
42859;BME280;28505;56.970;40.998;2022-10-31T15:39:26;98760.22;;;1.54;nan
42859;BME280;28505;56.970;40.998;2022-10-31T15:45:27;98746.94;;;1.49;nan
42859;BME280;28505;56.970;40.998;2022-10-31T15:51:42;98761.78;;;1.50;nan
42859;BME280;28505;56.970;40.998;2022-10-31T15:57:52;98767.88;;;1.40;nan
42859;BME280;28505;56.970;40.998;2022-10-31T16:03:33;98776.41;;;1.47;nan
42859;BME280;28505;56.970;40.998;2022-10-31T16:09:47;98797.41;;;1.54;nan
42859;BME280;28505;56.970;40.998;2022-10-31T16:15:33;98764.97;;;1.36;nan
42859;BME280;28505;56.970;40.998;2022-10-31T16:27:54;98798.22;;;1.54;nan
42859;BME280;28505;56.970;40.998;2022-10-31T16:33:29;98783.03;;;1.50;nan
42859;BME280;28505;56.970;40.998;2022-10-31T16:38:57;98807.53;;;1.67;nan
42859;BME280;28505;56.970;40.998;2022-10-31T16:44:25;98810.69;;;1.59;nan
42859;BME280;28505;56.970;40.998;2022-10-31T16:49:48;98827.97;;;1.67;nan
42859;BME280;28505;56.970;40.998;2022-10-31T16:55:14;98833.34;;;1.77;nan
42859;BME280;28505;56.970;40.998;2022-10-31T17:00:37;98821.34;;;1.64;nan
42859;BME280;28505;56.970;40.998;2022-10-31T17:06:03;98847.94;;;1.79;nan
42859;BME280;28505;56.970;40.998;2022-10-31T17:11:26;98866.53;;;1.74;nan
42859;BME280;28505;56.970;40.998;2022-10-31T17:16:48;98870.28;;;1.83;nan
42859;BME280;28505;56.970;40.998;2022-10-31T17:22:11;98885.16;;;1.90;nan
42859;BME280;28505;56.970;40.998;2022-10-31T17:27:34;98896.88;;;1.99;nan
42859;BME280;28505;56.970;40.998;2022-10-31T17:32:56;98891.81;;;1.87;nan
42859;BME280;28505;56.970;40.998;2022-10-31T17:38:19;98871.59;;;1.81;nan
42859;BME280;28505;56.970;40.998;2022-10-31T17:43:56;98889.66;;;1.89;nan
42859;BME280;28505;56.970;40.998;2022-10-31T17:49:19;98913.34;;;1.91;nan
42859;BME280;28505;56.970;40.998;2022-10-31T17:54:45;98925.81;;;1.85;nan
42859;BME280;28505;56.970;40.998;2022-10-31T18:00:12;98939.66;;;1.92;nan
42859;BME280;28505;56.970;40.998;2022-10-31T18:05:36;98938.88;;;1.97;nan
42859;BME280;28505;56.970;40.998;2022-10-31T18:18:10;98967.47;;;1.64;nan
42859;BME280;28505;56.970;40.998;2022-10-31T18:39:17;98976.50;;;1.73;nan
42859;BME280;28505;56.970;40.998;2022-10-31T18:44:40;98985.03;;;1.70;nan
42859;BME280;28505;56.970;40.998;2022-10-31T18:50:03;99011.41;;;1.87;nan
42859;BME280;28505;56.970;40.998;2022-10-31T19:10:47;99045.97;;;1.87;nan
42859;BME280;28505;56.970;40.998;2022-10-31T20:27:41;99117.94;;;1.85;nan
42859;BME280;28505;56.970;40.998;2022-10-31T20:51:01;99151.13;;;2.20;nan
42859;BME280;28505;56.970;40.998;2022-10-31T20:58:31;99129.25;;;2.03;nan
42859;BME280;28505;56.970;40.998;2022-10-31T21:05:18;99144.59;;;1.96;nan
42859;BME280;28505;56.970;40.998;2022-10-31T21:18:40;99154.44;;;1.95;nan
42859;BME280;28505;56.970;40.998;2022-10-31T21:24:16;99175.69;;;1.95;nan
42859;BME280;28505;56.970;40.998;2022-10-31T21:29:44;99189.75;;;1.91;nan
42859;BME280;28505;56.970;40.998;2022-10-31T21:35:19;99187.34;;;1.89;nan
42859;BME280;28505;56.970;40.998;2022-10-31T21:40:44;99189.78;;;1.96;nan
42859;BME280;28505;56.970;40.998;2022-10-31T21:46:17;99203.56;;;1.93;nan
42859;BME280;28505;56.970;40.998;2022-10-31T21:51:42;99217.06;;;1.81;nan
42859;BME280;28505;56.970;40.998;2022-10-31T21:57:14;99229.56;;;1.85;nan
42859;BME280;28505;56.970;40.998;2022-10-31T22:02:42;99239.50;;;1.95;nan
42859;BME280;28505;56.970;40.998;2022-10-31T22:08:15;99244.34;;;1.71;nan
42859;BME280;28505;56.970;40.998;2022-10-31T22:13:48;99263.09;;;1.86;nan
42859;BME280;28505;56.970;40.998;2022-10-31T22:19:19;99248.88;;;1.71;nan
42859;BME280;28505;56.970;40.998;2022-10-31T22:24:52;99256.03;;;1.70;nan
42859;BME280;28505;56.970;40.998;2022-10-31T22:30:19;99281.03;;;1.74;nan
42859;BME280;28505;56.970;40.998;2022-10-31T22:36:02;99280.44;;;1.67;nan
42859;BME280;28505;56.970;40.998;2022-10-31T22:41:46;99297.00;;;1.74;nan
42859;BME280;28505;56.970;40.998;2022-10-31T22:47:24;99287.31;;;1.63;nan
42859;BME280;28505;56.970;40.998;2022-10-31T22:52:49;99312.53;;;1.60;nan
42859;BME280;28505;56.970;40.998;2022-10-31T22:58:13;99312.53;;;1.60;nan
42859;BME280;28505;56.970;40.998;2022-10-31T23:03:36;99336.78;;;1.69;nan
42859;BME280;28505;56.970;40.998;2022-10-31T23:08:59;99349.03;;;1.70;nan
42859;BME280;28505;56.970;40.998;2022-10-31T23:14:21;99340.31;;;1.53;nan
42859;BME280;28505;56.970;40.998;2022-10-31T23:19:44;99353.50;;;1.43;nan
42859;BME280;28505;56.970;40.998;2022-10-31T23:25:06;99354.84;;;1.45;nan
42859;BME280;28505;56.970;40.998;2022-10-31T23:30:29;99368.19;;;1.50;nan
42859;BME280;28505;56.970;40.998;2022-10-31T23:35:51;99371.53;;;1.40;nan
42859;BME280;28505;56.970;40.998;2022-10-31T23:41:13;99375.81;;;1.42;nan
42859;BME280;28505;56.970;40.998;2022-10-31T23:46:35;99375.53;;;1.43;nan
42859;BME280;28505;56.970;40.998;2022-10-31T23:51:57;99385.38;;;1.43;nan
42859;BME280;28505;56.970;40.998;2022-10-31T23:57:19;99390.94;;;1.41;nan
